createdAt,value
2023-01-27T00:00:58.149Z,-0.10
2023-01-27T00:02:00.183Z,0.00
2023-01-27T00:03:03.117Z,-0.10
2023-01-27T00:04:06.150Z,-0.10
2023-01-27T00:05:13.155Z,0.00
2023-01-27T00:06:16.428Z,-0.10
2023-01-27T00:07:18.260Z,-0.10
2023-01-27T00:08:21.959Z,-0.10
2023-01-27T00:09:23.728Z,-0.10
2023-01-27T00:10:29.534Z,-0.10
2023-01-27T00:11:51.428Z,0.00
2023-01-27T00:13:13.603Z,-0.10
2023-01-27T00:14:15.783Z,-0.10
2023-01-27T00:15:18.847Z,-0.10
2023-01-27T00:16:20.843Z,-0.10
2023-01-27T00:17:22.876Z,-0.10
2023-01-27T00:18:25.116Z,-0.10
2023-01-27T00:19:28.094Z,0.00
2023-01-27T00:20:49.249Z,0.00
2023-01-27T00:22:12.909Z,0.10
2023-01-27T00:23:36.986Z,0.00
2023-01-27T00:24:39.331Z,0.10
2023-01-27T00:25:41.457Z,0.10
2023-01-27T00:26:43.647Z,0.20
2023-01-27T00:27:46.521Z,0.10
2023-01-27T00:28:49.262Z,0.10
2023-01-27T00:29:52.867Z,0.10
2023-01-27T00:30:55.653Z,0.00
2023-01-27T00:32:16.492Z,0.10
2023-01-27T00:33:27.949Z,0.10
2023-01-27T00:34:30.046Z,0.10
2023-01-27T00:35:34.624Z,0.10
2023-01-27T00:36:41.999Z,0.10
2023-01-27T00:37:47.103Z,0.10
2023-01-27T00:38:50.059Z,0.10
2023-01-27T00:39:51.942Z,0.10
2023-01-27T00:41:11.863Z,0.00
2023-01-27T00:42:13.368Z,0.00
2023-01-27T00:43:14.779Z,0.00
2023-01-27T00:44:16.440Z,-0.10
2023-01-27T00:45:36.540Z,-0.10
2023-01-27T00:46:37.995Z,-0.20
2023-01-27T00:47:39.521Z,-0.30
2023-01-27T00:48:42.378Z,-0.40
2023-01-27T00:49:43.875Z,-0.40
2023-01-27T00:50:45.587Z,-0.50
2023-01-27T00:51:47.408Z,-0.50
2023-01-27T00:52:51.132Z,-0.60
2023-01-27T00:53:53.457Z,-0.60
2023-01-27T00:54:54.843Z,-0.60
2023-01-27T00:55:58.167Z,-0.60
2023-01-27T00:56:59.727Z,-0.60
2023-01-27T00:58:01.376Z,-0.60
2023-01-27T00:59:03.582Z,-0.70
2023-01-27T01:00:06.926Z,-0.60
2023-01-27T01:01:16.245Z,-0.60
2023-01-27T01:02:17.692Z,-0.70
2023-01-27T01:03:19.110Z,-0.60
2023-01-27T01:04:20.862Z,-0.60
2023-01-27T01:05:22.315Z,-0.60
2023-01-27T01:06:24.292Z,-0.60
2023-01-27T01:07:25.814Z,-0.60
2023-01-27T01:08:27.639Z,-0.70
2023-01-27T01:09:29.424Z,-0.70
2023-01-27T01:10:31.103Z,-0.60
2023-01-27T01:11:32.775Z,-0.60
2023-01-27T01:12:34.307Z,-0.50
2023-01-27T01:13:36.096Z,-0.60
2023-01-27T01:14:37.936Z,-0.60
2023-01-27T01:15:41.725Z,-0.60
2023-01-27T01:16:43.248Z,-0.50
2023-01-27T01:17:44.898Z,-0.60
2023-01-27T01:18:46.554Z,-0.60
2023-01-27T01:19:48.370Z,-0.60
2023-01-27T01:20:50.146Z,-0.60
2023-01-27T01:21:51.652Z,-0.70
2023-01-27T01:22:53.217Z,-0.70
2023-01-27T01:23:54.822Z,-0.70
2023-01-27T01:24:56.352Z,-0.70
2023-01-27T01:25:58.489Z,-0.60
2023-01-27T01:27:00.391Z,-0.70
2023-01-27T01:28:03.185Z,-0.70
2023-01-27T01:29:05.073Z,-0.70
2023-01-27T01:30:07.210Z,-0.60
2023-01-27T01:31:11.778Z,-0.70
2023-01-27T01:32:14.004Z,-0.70
2023-01-27T01:33:16.178Z,-0.70
2023-01-27T01:34:17.668Z,-0.70
2023-01-27T01:35:19.773Z,-0.70
2023-01-27T01:36:21.936Z,-0.70
2023-01-27T01:37:23.407Z,-0.70
2023-01-27T01:38:24.867Z,-0.60
2023-01-27T01:39:26.494Z,-0.50
2023-01-27T01:40:27.919Z,-0.60
2023-01-27T01:41:29.448Z,-0.60
2023-01-27T01:42:54.555Z,-0.60
2023-01-27T01:43:56.108Z,-0.60
2023-01-27T01:45:36.390Z,-0.60
2023-01-27T01:46:37.770Z,-0.60
2023-01-27T01:47:39.620Z,-0.50
2023-01-27T01:48:43.853Z,-0.50
2023-01-27T01:49:47.149Z,-0.60
2023-01-27T01:51:04.800Z,-0.50
2023-01-27T01:52:15.440Z,-0.50
2023-01-27T01:53:18.680Z,-0.50
2023-01-27T01:54:35.235Z,-0.60
2023-01-27T01:55:39.328Z,-0.60
2023-01-27T01:56:53.551Z,-0.60
2023-01-27T01:57:55.232Z,-0.50
2023-01-27T01:59:02.274Z,-0.50
2023-01-27T02:00:07.319Z,-0.50
2023-01-27T02:01:20.674Z,-0.50
2023-01-27T02:02:25.255Z,-0.50
2023-01-27T02:03:29.381Z,-0.50
2023-01-27T02:04:42.323Z,-0.50
2023-01-27T02:05:45.510Z,-0.50
2023-01-27T02:07:18.186Z,-0.60
2023-01-27T02:08:40.062Z,-0.50
2023-01-27T02:09:41.725Z,-0.50
2023-01-27T02:10:43.384Z,-0.50
2023-01-27T02:11:44.896Z,-0.60
2023-01-27T02:12:46.502Z,-0.60
2023-01-27T02:13:48.655Z,-0.60
2023-01-27T02:14:50.143Z,-0.70
2023-01-27T02:15:54.324Z,-0.70
2023-01-27T02:16:56.836Z,-0.60
2023-01-27T02:18:00.642Z,-0.60
2023-01-27T02:19:03.093Z,-0.70
2023-01-27T02:20:19.121Z,-0.60
2023-01-27T02:21:21.136Z,-0.60
2023-01-27T02:22:41.484Z,-0.60
2023-01-27T02:24:10.819Z,-0.60
2023-01-27T02:25:23.696Z,-0.70
2023-01-27T02:26:36.268Z,-0.80
2023-01-27T02:27:37.813Z,-0.80
2023-01-27T02:28:39.234Z,-0.80
2023-01-27T02:29:40.706Z,-0.70
2023-01-27T02:30:42.210Z,-0.70
2023-01-27T02:31:44.125Z,-0.80
2023-01-27T02:32:45.584Z,-0.80
2023-01-27T02:33:46.976Z,-0.70
2023-01-27T02:34:48.669Z,-0.70
2023-01-27T02:36:07.152Z,-0.70
2023-01-27T02:37:10.538Z,-0.60
2023-01-27T02:38:16.330Z,-0.60
2023-01-27T02:39:21.545Z,-0.50
2023-01-27T02:40:23.467Z,-0.50
2023-01-27T02:41:30.795Z,-0.50
2023-01-27T02:42:32.581Z,-0.50
2023-01-27T02:43:34.026Z,-0.50
2023-01-27T02:44:35.738Z,-0.50
2023-01-27T02:45:37.845Z,-0.50
2023-01-27T02:46:39.256Z,-0.60
2023-01-27T02:47:41.691Z,-0.50
2023-01-27T02:48:44.549Z,-0.50
2023-01-27T02:49:46.053Z,-0.50
2023-01-27T02:50:47.823Z,-0.50
2023-01-27T02:51:49.257Z,-0.50
2023-01-27T02:52:51.430Z,-0.50
2023-01-27T02:53:52.983Z,-0.50
2023-01-27T02:54:56.461Z,-0.40
2023-01-27T02:55:58.005Z,-0.40
2023-01-27T02:56:59.623Z,-0.40
2023-01-27T02:58:03.692Z,-0.50
2023-01-27T02:59:15.103Z,-0.40
2023-01-27T03:00:17.237Z,-0.40
2023-01-27T03:01:19.096Z,-0.40
2023-01-27T03:02:22.883Z,-0.40
2023-01-27T03:03:24.628Z,-0.50
2023-01-27T03:04:26.079Z,-0.60
2023-01-27T03:05:27.741Z,-0.60
2023-01-27T03:06:29.223Z,-0.60
2023-01-27T03:07:30.971Z,-0.60
2023-01-27T03:08:32.352Z,-0.60
2023-01-27T03:09:34.333Z,-0.70
2023-01-27T03:10:36.060Z,-0.50
2023-01-27T03:11:55.882Z,-0.50
2023-01-27T03:12:58.292Z,-0.50
2023-01-27T03:14:00.265Z,-0.60
2023-01-27T03:15:20.758Z,-0.70
2023-01-27T03:16:40.785Z,-0.70
2023-01-27T03:18:00.763Z,-0.60
2023-01-27T03:19:02.485Z,-0.70
2023-01-27T03:20:04.393Z,-0.70
2023-01-27T03:21:07.651Z,-0.70
2023-01-27T03:22:09.076Z,-0.70
2023-01-27T03:23:12.842Z,-0.70
2023-01-27T03:24:14.766Z,-0.70
2023-01-27T03:25:17.015Z,-0.70
2023-01-27T03:26:18.538Z,-0.70
2023-01-27T03:27:23.866Z,-0.70
2023-01-27T03:29:04.278Z,-0.70
2023-01-27T03:30:07.072Z,-0.70
2023-01-27T03:31:19.621Z,-0.60
2023-01-27T03:32:34.085Z,-0.50
2023-01-27T03:34:07.685Z,-0.50
2023-01-27T03:35:16.998Z,-0.60
2023-01-27T03:36:40.183Z,-0.60
2023-01-27T03:38:01.236Z,-0.60
2023-01-27T03:39:21.252Z,-0.50
2023-01-27T03:40:41.378Z,-0.50
2023-01-27T03:42:01.521Z,-0.50
2023-01-27T03:43:21.964Z,-0.50
2023-01-27T03:44:42.215Z,-0.60
2023-01-27T03:46:06.803Z,-0.60
2023-01-27T03:47:08.240Z,-0.50
2023-01-27T03:48:09.676Z,-0.60
2023-01-27T03:49:11.280Z,-0.60
2023-01-27T03:50:13.882Z,-0.60
2023-01-27T03:51:16.056Z,-0.70
2023-01-27T03:52:17.558Z,-0.70
2023-01-27T03:53:20.515Z,-0.70
2023-01-27T03:54:22.079Z,-0.60
2023-01-27T03:55:23.502Z,-0.60
2023-01-27T03:56:25.211Z,-0.60
2023-01-27T03:57:26.682Z,-0.60
2023-01-27T03:58:31.044Z,-0.60
2023-01-27T03:59:32.992Z,-0.50
2023-01-27T04:00:34.367Z,-0.50
2023-01-27T04:01:35.813Z,-0.40
2023-01-27T04:02:56.337Z,-0.40
2023-01-27T04:04:16.601Z,-0.40
2023-01-27T04:05:37.495Z,-0.50
2023-01-27T04:07:02.832Z,-0.70
2023-01-27T04:08:06.184Z,-0.80
2023-01-27T04:09:09.382Z,-0.80
2023-01-27T04:10:11.295Z,-0.90
2023-01-27T04:11:31.973Z,-0.80
2023-01-27T04:12:33.432Z,-0.90
2023-01-27T04:13:35.015Z,-0.90
2023-01-27T04:14:38.803Z,-0.90
2023-01-27T04:15:40.621Z,-1.00
2023-01-27T04:16:42.202Z,-0.90
2023-01-27T04:17:43.833Z,-1.00
2023-01-27T04:18:48.059Z,-1.00
2023-01-27T04:19:50.599Z,-0.90
2023-01-27T04:20:51.984Z,-1.00
2023-01-27T04:21:53.916Z,-0.90
2023-01-27T04:22:56.331Z,-0.90
2023-01-27T04:23:57.924Z,-0.80
2023-01-27T04:24:59.395Z,-0.80
2023-01-27T04:26:00.858Z,-0.80
2023-01-27T04:27:05.465Z,-0.70
2023-01-27T04:28:06.933Z,-0.70
2023-01-27T04:29:08.387Z,-0.70
2023-01-27T04:30:10.557Z,-0.70
2023-01-27T04:31:12.593Z,-0.70
2023-01-27T04:32:14.666Z,-0.70
2023-01-27T04:33:16.822Z,-0.70
2023-01-27T04:34:19.168Z,-0.60
2023-01-27T04:35:23.333Z,-0.60
2023-01-27T04:36:26.699Z,-0.50
2023-01-27T04:37:28.070Z,-0.50
2023-01-27T04:38:30.062Z,-0.50
2023-01-27T04:39:32.404Z,-0.50
2023-01-27T04:40:33.880Z,-0.50
2023-01-27T04:41:35.703Z,-0.50
2023-01-27T04:42:37.283Z,-0.50
2023-01-27T04:43:38.702Z,-0.50
2023-01-27T04:44:40.110Z,-0.50
2023-01-27T04:45:41.729Z,-0.40
2023-01-27T04:46:43.216Z,-0.50
2023-01-27T04:47:44.873Z,-0.60
2023-01-27T04:48:46.306Z,-0.50
2023-01-27T04:49:47.775Z,-0.50
2023-01-27T04:50:49.326Z,-0.50
2023-01-27T04:51:50.773Z,-0.40
2023-01-27T04:52:52.163Z,-0.40
2023-01-27T04:53:54.345Z,-0.40
2023-01-27T04:54:55.990Z,-0.40
2023-01-27T04:56:03.549Z,-0.50
2023-01-27T04:57:05.594Z,-0.50
2023-01-27T04:58:07.007Z,-0.50
2023-01-27T04:59:11.907Z,-0.50
2023-01-27T05:00:15.438Z,-0.40
2023-01-27T05:01:18.052Z,-0.40
2023-01-27T05:02:23.180Z,-0.30
2023-01-27T05:03:24.693Z,-0.40
2023-01-27T05:04:27.056Z,-0.50
2023-01-27T05:05:28.529Z,-0.50
2023-01-27T05:06:31.251Z,-0.50
2023-01-27T05:07:33.081Z,-0.50
2023-01-27T05:08:34.542Z,-0.50
2023-01-27T05:09:35.932Z,-0.50
2023-01-27T05:10:37.735Z,-0.50
2023-01-27T05:11:39.180Z,-0.60
2023-01-27T05:12:40.674Z,-0.50
2023-01-27T05:13:42.425Z,-0.50
2023-01-27T05:14:43.802Z,-0.40
2023-01-27T05:15:45.578Z,-0.40
2023-01-27T05:16:47.198Z,-0.50
2023-01-27T05:17:48.707Z,-0.50
2023-01-27T05:18:51.679Z,-0.50
2023-01-27T05:19:53.335Z,-0.50
2023-01-27T05:21:00.046Z,-0.50
2023-01-27T05:22:01.516Z,-0.60
2023-01-27T05:23:21.732Z,-0.50
2023-01-27T05:24:23.346Z,-0.40
2023-01-27T05:25:25.182Z,-0.40
2023-01-27T05:26:28.248Z,-0.40
2023-01-27T05:27:30.433Z,-0.40
2023-01-27T05:28:32.093Z,-0.40
2023-01-27T05:29:33.684Z,-0.30
2023-01-27T05:30:35.244Z,-0.30
2023-01-27T05:31:36.868Z,-0.30
2023-01-27T05:32:38.463Z,-0.30
2023-01-27T05:33:41.042Z,-0.30
2023-01-27T05:34:42.487Z,-0.30
2023-01-27T05:35:43.880Z,-0.30
2023-01-27T05:36:45.411Z,-0.30
2023-01-27T05:37:46.793Z,-0.30
2023-01-27T05:38:48.784Z,-0.40
2023-01-27T05:39:50.486Z,-0.40
2023-01-27T05:40:56.770Z,-0.30
2023-01-27T05:41:58.180Z,-0.30
2023-01-27T05:43:00.027Z,-0.30
2023-01-27T05:44:01.633Z,-0.30
2023-01-27T05:45:03.209Z,-0.30
2023-01-27T05:46:11.239Z,-0.30
2023-01-27T05:47:13.066Z,-0.40
2023-01-27T05:48:14.598Z,-0.30
2023-01-27T05:49:16.033Z,-0.30
2023-01-27T05:50:18.737Z,-0.30
2023-01-27T05:51:22.968Z,-0.50
2023-01-27T05:52:24.422Z,-0.50
2023-01-27T05:53:26.321Z,-0.40
2023-01-27T05:54:27.971Z,-0.40
2023-01-27T05:55:29.487Z,-0.50
2023-01-27T05:56:31.052Z,-0.40
2023-01-27T05:57:32.989Z,-0.40
2023-01-27T05:58:34.672Z,-0.40
2023-01-27T05:59:36.073Z,-0.40
2023-01-27T06:00:37.555Z,-0.50
2023-01-27T06:01:39.352Z,-0.50
2023-01-27T06:02:41.061Z,-0.50
2023-01-27T06:03:43.264Z,-0.40
2023-01-27T06:04:45.025Z,-0.40
2023-01-27T06:05:55.528Z,-0.40
2023-01-27T06:06:57.193Z,-0.40
2023-01-27T06:07:58.733Z,-0.40
2023-01-27T06:09:00.764Z,-0.40
2023-01-27T06:10:02.193Z,-0.40
2023-01-27T06:11:04.551Z,-0.40
2023-01-27T06:12:06.213Z,-0.40
2023-01-27T06:13:07.880Z,-0.40
2023-01-27T06:14:09.530Z,-0.40
2023-01-27T06:15:11.669Z,-0.30
2023-01-27T06:16:14.902Z,-0.30
2023-01-27T06:17:16.435Z,-0.40
2023-01-27T06:18:19.322Z,-0.40
2023-01-27T06:19:21.135Z,-0.50
2023-01-27T06:20:22.468Z,-0.40
2023-01-27T06:21:23.873Z,-0.40
2023-01-27T06:22:25.505Z,-0.40
2023-01-27T06:23:27.740Z,-0.40
2023-01-27T06:24:29.148Z,-0.40
2023-01-27T06:25:30.843Z,-0.40
2023-01-27T06:26:32.241Z,-0.40
2023-01-27T06:27:33.627Z,-0.40
2023-01-27T06:28:35.889Z,-0.40
2023-01-27T06:29:37.291Z,-0.30
2023-01-27T06:30:39.809Z,-0.30
2023-01-27T06:31:41.257Z,-0.30
2023-01-27T06:32:42.689Z,-0.30
2023-01-27T06:33:44.711Z,-0.30
2023-01-27T06:34:46.305Z,-0.40
2023-01-27T06:35:47.855Z,-0.40
2023-01-27T06:36:49.838Z,-0.40
2023-01-27T06:37:51.864Z,-0.40
2023-01-27T06:38:53.512Z,-0.40
2023-01-27T06:39:54.960Z,-0.30
2023-01-27T06:40:57.454Z,-0.30
2023-01-27T06:41:58.957Z,-0.40
2023-01-27T06:43:01.110Z,-0.40
2023-01-27T06:44:02.475Z,-0.30
2023-01-27T06:45:04.246Z,-0.30
2023-01-27T06:46:06.223Z,-0.30
2023-01-27T06:47:07.800Z,-0.20
2023-01-27T06:48:09.324Z,-0.20
2023-01-27T06:49:10.802Z,-0.20
2023-01-27T06:50:12.618Z,-0.20
2023-01-27T06:51:14.366Z,-0.10
2023-01-27T06:52:16.358Z,-0.10
2023-01-27T06:53:17.780Z,-0.10
2023-01-27T06:54:19.402Z,-0.20
2023-01-27T06:55:20.953Z,-0.30
2023-01-27T06:56:22.409Z,-0.30
2023-01-27T06:57:24.671Z,-0.30
2023-01-27T06:58:26.868Z,-0.30
2023-01-27T06:59:28.819Z,-0.20
2023-01-27T07:00:30.371Z,-0.30
2023-01-27T07:01:31.923Z,-0.20
2023-01-27T07:02:35.038Z,-0.30
2023-01-27T07:03:36.670Z,-0.30
2023-01-27T07:04:38.113Z,-0.30
2023-01-27T07:05:41.389Z,-0.20
2023-01-27T07:06:42.838Z,-0.20
2023-01-27T07:07:44.878Z,-0.20
2023-01-27T07:08:47.485Z,-0.20
2023-01-27T07:09:52.665Z,-0.30
2023-01-27T07:10:54.558Z,-0.20
2023-01-27T07:11:56.115Z,-0.20
2023-01-27T07:13:11.694Z,-0.30
2023-01-27T07:14:13.159Z,-0.30
2023-01-27T07:15:15.128Z,-0.40
2023-01-27T07:16:16.753Z,-0.30
2023-01-27T07:17:18.190Z,-0.30
2023-01-27T07:18:19.774Z,-0.30
2023-01-27T07:19:21.517Z,-0.30
2023-01-27T07:20:23.526Z,-0.30
2023-01-27T07:21:26.121Z,-0.30
2023-01-27T07:22:27.863Z,-0.30
2023-01-27T07:23:29.377Z,-0.30
2023-01-27T07:24:31.917Z,-0.30
2023-01-27T07:25:34.851Z,-0.30
2023-01-27T07:26:36.388Z,-0.30
2023-01-27T07:27:37.799Z,-0.30
2023-01-27T07:28:39.177Z,-0.30
2023-01-27T07:29:40.625Z,-0.40
2023-01-27T07:30:43.252Z,-0.40
2023-01-27T07:31:45.099Z,-0.40
2023-01-27T07:32:46.776Z,-0.50
2023-01-27T07:33:48.457Z,-0.40
2023-01-27T07:34:49.958Z,-0.40
2023-01-27T07:35:51.715Z,-0.40
2023-01-27T07:36:53.200Z,-0.30
2023-01-27T07:37:56.743Z,-0.30
2023-01-27T07:38:58.170Z,-0.30
2023-01-27T07:39:59.643Z,-0.30
2023-01-27T07:41:04.919Z,-0.30
2023-01-27T07:42:07.150Z,-0.30
2023-01-27T07:43:11.818Z,-0.30
2023-01-27T07:44:15.262Z,-0.30
2023-01-27T07:45:16.878Z,-0.30
2023-01-27T07:46:18.602Z,-0.30
2023-01-27T07:47:20.416Z,-0.30
2023-01-27T07:48:22.061Z,-0.30
2023-01-27T07:49:25.969Z,-0.30
2023-01-27T07:50:29.997Z,-0.20
2023-01-27T07:51:31.461Z,-0.30
2023-01-27T07:52:33.339Z,-0.20
2023-01-27T07:53:34.748Z,-0.20
2023-01-27T07:54:36.196Z,-0.20
2023-01-27T07:55:37.786Z,-0.20
2023-01-27T07:56:39.254Z,-0.30
2023-01-27T07:57:41.205Z,-0.30
2023-01-27T07:58:42.835Z,-0.30
2023-01-27T07:59:44.327Z,-0.20
2023-01-27T08:00:45.790Z,-0.30
2023-01-27T08:01:48.369Z,-0.20
2023-01-27T08:02:54.077Z,-0.20
2023-01-27T08:03:55.622Z,-0.20
2023-01-27T08:04:57.356Z,-0.20
2023-01-27T08:05:58.875Z,-0.10
2023-01-27T08:07:01.726Z,-0.10
2023-01-27T08:08:06.146Z,-0.10
2023-01-27T08:09:07.893Z,0.00
2023-01-27T08:10:11.070Z,-0.10
2023-01-27T08:11:14.596Z,-0.10
2023-01-27T08:12:16.105Z,-0.10
2023-01-27T08:13:18.116Z,-0.10
2023-01-27T08:14:19.838Z,-0.10
2023-01-27T08:15:21.637Z,0.00
2023-01-27T08:16:23.046Z,0.00
2023-01-27T08:17:24.583Z,0.00
2023-01-27T08:18:27.336Z,0.00
2023-01-27T08:19:28.944Z,0.00
2023-01-27T08:20:30.712Z,0.00
2023-01-27T08:21:33.246Z,0.00
2023-01-27T08:22:34.736Z,0.00
2023-01-27T08:23:36.743Z,0.00
2023-01-27T08:24:38.173Z,0.00
2023-01-27T08:25:40.046Z,0.00
2023-01-27T08:26:41.536Z,0.00
2023-01-27T08:27:43.043Z,-0.10
2023-01-27T08:28:44.528Z,-0.20
2023-01-27T08:29:46.340Z,-0.20
2023-01-27T08:30:48.363Z,-0.20
2023-01-27T08:31:49.967Z,-0.10
2023-01-27T08:32:51.764Z,-0.30
2023-01-27T08:33:54.298Z,-0.30
2023-01-27T08:34:56.008Z,-0.30
2023-01-27T08:36:01.617Z,-0.30
2023-01-27T08:37:03.370Z,-0.20
2023-01-27T08:38:05.548Z,-0.10
2023-01-27T08:39:06.929Z,0.00
2023-01-27T08:40:09.197Z,0.00
2023-01-27T08:41:16.424Z,0.00
2023-01-27T08:42:18.289Z,0.00
2023-01-27T08:43:20.729Z,0.00
2023-01-27T08:44:22.105Z,0.10
2023-01-27T08:45:24.009Z,0.20
2023-01-27T08:46:25.445Z,0.20
2023-01-27T08:47:26.888Z,0.20
2023-01-27T08:48:30.333Z,0.20
2023-01-27T08:49:31.790Z,0.20
2023-01-27T08:50:34.232Z,0.30
2023-01-27T08:51:35.787Z,0.30
2023-01-27T08:52:37.265Z,0.30
2023-01-27T08:53:39.273Z,0.20
2023-01-27T08:54:40.800Z,0.20
2023-01-27T08:55:42.528Z,0.10
2023-01-27T08:56:43.908Z,0.20
2023-01-27T08:57:45.440Z,0.20
2023-01-27T08:58:48.412Z,0.20
2023-01-27T08:59:49.983Z,0.20
2023-01-27T09:00:51.407Z,0.20
2023-01-27T09:01:52.926Z,0.30
2023-01-27T09:02:54.496Z,0.30
2023-01-27T09:03:55.939Z,0.30
2023-01-27T09:04:57.504Z,0.40
2023-01-27T09:05:59.955Z,0.40
2023-01-27T09:07:01.456Z,0.40
2023-01-27T09:08:04.293Z,0.40
2023-01-27T09:09:11.570Z,0.40
2023-01-27T09:10:15.627Z,0.40
2023-01-27T09:11:17.994Z,0.40
2023-01-27T09:12:19.620Z,0.40
2023-01-27T09:13:24.002Z,0.30
2023-01-27T09:14:25.695Z,0.40
2023-01-27T09:15:27.904Z,0.50
2023-01-27T09:16:29.422Z,0.50
2023-01-27T09:17:30.825Z,0.50
2023-01-27T09:18:32.955Z,0.60
2023-01-27T09:19:34.402Z,0.60
2023-01-27T09:20:39.861Z,0.60
2023-01-27T09:21:41.367Z,0.70
2023-01-27T09:22:42.891Z,0.70
2023-01-27T09:23:44.601Z,0.70
2023-01-27T09:24:46.753Z,0.70
2023-01-27T09:25:48.352Z,0.70
2023-01-27T09:26:49.821Z,0.70
2023-01-27T09:27:58.928Z,0.60
2023-01-27T09:29:00.420Z,0.60
2023-01-27T09:30:01.866Z,0.50
2023-01-27T09:31:03.486Z,0.50
2023-01-27T09:32:05.519Z,0.50
2023-01-27T09:33:09.091Z,0.60
2023-01-27T09:34:11.091Z,0.60
2023-01-27T09:35:12.839Z,0.60
2023-01-27T09:36:18.998Z,0.60
2023-01-27T09:37:20.879Z,0.60
2023-01-27T09:38:24.957Z,0.60
2023-01-27T09:39:27.763Z,0.60
2023-01-27T09:40:42.246Z,0.50
2023-01-27T09:41:43.594Z,0.60
2023-01-27T09:42:50.886Z,0.60
2023-01-27T09:44:29.861Z,0.60
2023-01-27T09:45:34.326Z,0.50
2023-01-27T09:47:06.871Z,0.50
2023-01-27T09:48:28.751Z,0.40
2023-01-27T09:49:36.295Z,0.40
2023-01-27T09:50:42.170Z,0.50
2023-01-27T09:52:21.678Z,0.40
2023-01-27T09:53:47.608Z,0.50
2023-01-27T09:54:54.908Z,0.60
2023-01-27T09:56:23.011Z,0.70
2023-01-27T09:58:00.480Z,0.70
2023-01-27T09:59:11.092Z,0.80
2023-01-27T10:00:21.855Z,0.80
2023-01-27T10:01:30.683Z,0.80
2023-01-27T10:02:45.112Z,0.90
2023-01-27T10:04:16.808Z,0.70
2023-01-27T10:05:27.109Z,0.70
2023-01-27T10:06:48.902Z,0.70
2023-01-27T10:07:53.365Z,0.70
2023-01-27T10:09:24.313Z,0.60
2023-01-27T10:10:52.309Z,0.60
2023-01-27T10:12:40.139Z,0.60
2023-01-27T10:14:00.115Z,0.60
2023-01-27T10:15:30.341Z,0.70
2023-01-27T10:16:59.897Z,0.70
2023-01-27T10:18:22.535Z,0.80
2023-01-27T10:20:14.023Z,0.80
2023-01-27T10:21:21.471Z,0.70
2023-01-27T10:22:53.944Z,0.80
2023-01-27T10:24:01.298Z,0.70
2023-01-27T10:25:12.706Z,0.70
2023-01-27T10:26:38.745Z,0.70
2023-01-27T10:27:51.290Z,0.80
2023-01-27T10:29:04.413Z,0.80
2023-01-27T10:30:15.711Z,0.80
2023-01-27T10:31:26.664Z,0.70
2023-01-27T10:32:38.610Z,0.70
2023-01-27T10:33:54.850Z,0.70
2023-01-27T10:35:19.254Z,0.80
2023-01-27T10:36:38.955Z,0.80
2023-01-27T10:38:03.380Z,0.80
2023-01-27T10:39:44.165Z,0.80
2023-01-27T10:41:03.377Z,0.80
2023-01-27T10:42:25.533Z,0.90
2023-01-27T10:43:42.141Z,0.80
2023-01-27T10:45:14.475Z,0.70
2023-01-27T10:47:05.267Z,0.80
2023-01-27T10:48:19.074Z,0.70
2023-01-27T10:49:24.280Z,0.70
2023-01-27T10:50:34.446Z,0.80
2023-01-27T10:51:38.710Z,0.90
2023-01-27T10:52:54.364Z,0.90
2023-01-27T10:54:19.013Z,0.90
2023-01-27T10:55:27.033Z,0.80
2023-01-27T10:56:43.050Z,0.90
2023-01-27T10:57:53.550Z,0.90
2023-01-27T10:59:02.916Z,0.90
2023-01-27T11:01:01.651Z,1.00
2023-01-27T11:02:14.474Z,1.00
2023-01-27T11:03:26.731Z,1.10
2023-01-27T11:04:49.316Z,1.10
2023-01-27T11:05:58.179Z,1.20
2023-01-27T11:07:00.310Z,1.10
2023-01-27T11:08:17.405Z,1.10
2023-01-27T11:09:43.757Z,1.20
2023-01-27T11:11:08.186Z,1.30
2023-01-27T11:12:15.151Z,1.30
2023-01-27T11:13:17.313Z,1.50
2023-01-27T11:14:41.793Z,1.50
2023-01-27T11:15:44.175Z,1.60
2023-01-27T11:16:50.488Z,1.60
2023-01-27T11:17:58.960Z,1.50
2023-01-27T11:19:10.811Z,1.50
2023-01-27T11:20:31.822Z,1.50
2023-01-27T11:21:34.275Z,1.60
2023-01-27T11:22:52.077Z,1.70
2023-01-27T11:23:56.914Z,1.60
2023-01-27T11:25:14.797Z,1.70
2023-01-27T11:26:39.354Z,1.60
2023-01-27T11:28:14.869Z,1.70
2023-01-27T11:29:41.501Z,1.70
2023-01-27T11:31:14.117Z,1.70
2023-01-27T11:32:36.575Z,1.70
2023-01-27T11:34:09.076Z,1.60
2023-01-27T11:35:11.829Z,1.60
2023-01-27T11:36:15.002Z,1.70
2023-01-27T11:37:32.321Z,1.70
2023-01-27T11:38:33.995Z,1.80
2023-01-27T11:39:35.361Z,1.80
2023-01-27T11:40:39.121Z,1.80
2023-01-27T11:41:46.126Z,1.90
2023-01-27T11:42:48.029Z,1.90
2023-01-27T11:43:50.158Z,1.80
2023-01-27T11:44:55.945Z,1.80
2023-01-27T11:46:06.872Z,1.80
2023-01-27T11:47:11.360Z,1.90
2023-01-27T11:48:16.997Z,1.90
2023-01-27T11:49:29.335Z,1.90
2023-01-27T11:50:34.791Z,2.00
2023-01-27T11:51:39.143Z,2.10
2023-01-27T11:52:40.603Z,2.00
2023-01-27T11:53:42.163Z,2.00
2023-01-27T11:55:07.087Z,1.90
2023-01-27T11:56:18.649Z,1.90
2023-01-27T11:57:23.381Z,2.00
2023-01-27T11:58:31.535Z,2.00
2023-01-27T11:59:41.452Z,2.00
2023-01-27T12:00:48.239Z,2.10
2023-01-27T12:02:14.328Z,2.10
2023-01-27T12:03:38.081Z,2.20
2023-01-27T12:04:52.416Z,2.30
2023-01-27T12:06:02.448Z,2.40
2023-01-27T12:07:25.646Z,2.30
2023-01-27T12:08:46.660Z,2.30
2023-01-27T12:09:48.339Z,2.30
2023-01-27T12:10:49.785Z,2.20
2023-01-27T12:12:11.364Z,2.20
2023-01-27T12:13:20.229Z,2.20
2023-01-27T12:14:23.864Z,2.10
2023-01-27T12:15:28.384Z,2.20
2023-01-27T12:16:46.039Z,2.30
2023-01-27T12:17:55.678Z,2.20
2023-01-27T12:19:06.789Z,2.10
2023-01-27T12:20:23.569Z,2.10
2023-01-27T12:21:38.283Z,2.10
2023-01-27T12:22:44.267Z,2.10
2023-01-27T12:23:56.118Z,2.20
2023-01-27T12:25:04.179Z,2.20
2023-01-27T12:26:08.696Z,2.30
2023-01-27T12:27:21.905Z,2.40
2023-01-27T12:28:28.582Z,2.30
2023-01-27T12:29:41.338Z,2.40
2023-01-27T12:30:47.275Z,2.50
2023-01-27T12:31:52.916Z,2.50
2023-01-27T12:32:55.476Z,2.50
2023-01-27T12:33:56.978Z,2.50
2023-01-27T12:34:58.896Z,2.50
2023-01-27T12:36:05.605Z,2.60
2023-01-27T12:37:08.369Z,2.60
2023-01-27T12:38:23.390Z,2.60
2023-01-27T12:39:36.694Z,2.50
2023-01-27T12:40:42.104Z,2.40
2023-01-27T12:41:43.820Z,2.40
2023-01-27T12:42:51.793Z,2.30
2023-01-27T12:44:00.371Z,2.20
2023-01-27T12:45:19.286Z,2.30
2023-01-27T12:46:23.970Z,2.20
2023-01-27T12:47:28.001Z,2.20
2023-01-27T12:48:32.103Z,2.30
2023-01-27T12:49:40.507Z,2.30
2023-01-27T12:50:51.414Z,2.20
2023-01-27T12:51:56.275Z,2.10
2023-01-27T12:53:14.264Z,2.00
2023-01-27T12:54:23.433Z,2.00
2023-01-27T12:55:30.388Z,2.10
2023-01-27T12:56:34.790Z,2.10
2023-01-27T12:57:43.168Z,2.10
2023-01-27T12:58:56.827Z,2.20
2023-01-27T12:59:59.094Z,2.10
2023-01-27T13:01:04.386Z,2.20
2023-01-27T13:02:21.325Z,2.10
2023-01-27T13:03:23.772Z,2.10
2023-01-27T13:04:27.137Z,2.10
2023-01-27T13:05:28.759Z,2.10
2023-01-27T13:06:42.746Z,1.90
2023-01-27T13:07:53.724Z,2.00
2023-01-27T13:08:55.249Z,2.00
2023-01-27T13:10:02.800Z,2.00
2023-01-27T13:11:05.210Z,2.00
2023-01-27T13:12:30.734Z,2.00
2023-01-27T13:13:32.311Z,2.00
2023-01-27T13:14:42.470Z,2.00
2023-01-27T13:15:57.723Z,2.00
2023-01-27T13:16:59.319Z,1.90
2023-01-27T13:18:13.482Z,2.00
2023-01-27T13:19:18.144Z,2.00
2023-01-27T13:20:25.464Z,2.10
2023-01-27T13:21:38.348Z,2.00
2023-01-27T13:22:47.768Z,2.10
2023-01-27T13:23:51.715Z,2.20
2023-01-27T13:24:59.356Z,2.20
2023-01-27T13:26:13.103Z,2.10
2023-01-27T13:27:19.092Z,2.10
2023-01-27T13:28:39.685Z,2.10
2023-01-27T13:30:21.398Z,2.20
2023-01-27T13:31:50.807Z,2.20
2023-01-27T13:32:56.062Z,2.10
2023-01-27T13:34:11.846Z,2.00
2023-01-27T13:35:34.567Z,2.10
2023-01-27T13:37:01.098Z,2.20
2023-01-27T13:38:18.310Z,2.20
2023-01-27T13:40:24.581Z,2.20
2023-01-27T13:41:36.071Z,2.20
2023-01-27T13:42:41.470Z,2.20
2023-01-27T13:43:51.488Z,2.20
2023-01-27T13:45:01.353Z,2.30
2023-01-27T13:46:21.867Z,2.30
2023-01-27T13:47:49.227Z,2.30
2023-01-27T13:48:55.175Z,2.30
2023-01-27T13:50:05.361Z,2.30
2023-01-27T13:51:14.073Z,2.30
2023-01-27T13:52:15.455Z,2.30
2023-01-27T13:53:20.060Z,2.40
2023-01-27T13:54:23.787Z,2.40
2023-01-27T13:55:50.742Z,2.40
2023-01-27T13:57:16.809Z,2.40
2023-01-27T13:58:40.222Z,2.50
2023-01-27T14:00:03.785Z,2.60
2023-01-27T14:01:24.937Z,2.50
2023-01-27T14:02:48.462Z,2.50
2023-01-27T14:04:11.310Z,2.50
2023-01-27T14:05:15.551Z,2.40
2023-01-27T14:06:34.600Z,2.40
2023-01-27T14:07:43.011Z,2.40
2023-01-27T14:08:59.569Z,2.50
2023-01-27T14:10:15.951Z,2.40
2023-01-27T14:11:40.220Z,2.30
2023-01-27T14:12:48.112Z,2.30
2023-01-27T14:14:17.153Z,2.30
2023-01-27T14:15:39.932Z,2.30
2023-01-27T14:16:44.413Z,2.30
2023-01-27T14:18:18.120Z,2.20
2023-01-27T14:19:50.840Z,2.10
2023-01-27T14:21:47.156Z,2.20
2023-01-27T14:23:18.810Z,2.00
2023-01-27T14:24:26.257Z,1.90
2023-01-27T14:25:36.518Z,2.00
2023-01-27T14:27:05.431Z,2.10
2023-01-27T14:28:21.565Z,2.10
2023-01-27T14:29:52.597Z,2.20
2023-01-27T14:31:19.768Z,2.10
2023-01-27T14:32:46.924Z,2.10
2023-01-27T14:33:54.592Z,2.20
2023-01-27T14:35:21.471Z,2.20
2023-01-27T14:36:42.822Z,2.30
2023-01-27T14:38:04.119Z,2.30
2023-01-27T14:39:24.981Z,2.20